createdAt,value
2019-03-27T00:01:21.009Z,96.30
2019-03-27T00:03:50.223Z,96.60
2019-03-27T00:06:19.376Z,96.60
2019-03-27T00:08:48.629Z,96.70
2019-03-27T00:11:17.726Z,96.70
2019-03-27T00:13:47.810Z,96.70
2019-03-27T00:16:17.136Z,96.60
2019-03-27T00:18:46.365Z,96.60
2019-03-27T00:21:15.587Z,96.50
2019-03-27T00:23:44.944Z,96.30
2019-03-27T00:26:14.258Z,96.20
2019-03-27T00:28:43.456Z,96.30
2019-03-27T00:31:12.636Z,95.90
2019-03-27T00:33:41.886Z,95.80
2019-03-27T00:36:11.292Z,95.80
2019-03-27T00:38:40.528Z,95.40
2019-03-27T00:41:09.825Z,95.40
2019-03-27T00:43:38.953Z,95.30
2019-03-27T00:46:08.161Z,95.40
2019-03-27T00:48:37.348Z,95.00
2019-03-27T00:51:06.744Z,95.00
2019-03-27T00:53:35.878Z,95.20
2019-03-27T00:56:05.435Z,95.30
2019-03-27T00:58:34.517Z,95.50
2019-03-27T01:01:14.403Z,95.50
2019-03-27T01:03:43.664Z,95.10
2019-03-27T01:06:13.291Z,95.30
2019-03-27T01:08:42.619Z,94.90
2019-03-27T01:11:11.889Z,95.30
2019-03-27T01:13:41.261Z,95.20
2019-03-27T01:16:10.536Z,95.00
2019-03-27T01:18:39.627Z,94.90
2019-03-27T01:21:08.844Z,94.90
2019-03-27T01:23:38.132Z,94.80
2019-03-27T01:26:07.340Z,95.00
2019-03-27T01:28:36.604Z,95.30
2019-03-27T01:31:06.000Z,95.20
2019-03-27T01:33:35.238Z,95.60
2019-03-27T01:36:04.553Z,95.70
2019-03-27T01:38:33.838Z,95.80
2019-03-27T01:41:02.936Z,96.10
2019-03-27T01:43:32.251Z,96.00
2019-03-27T01:46:01.593Z,96.10
2019-03-27T01:48:30.847Z,95.80
2019-03-27T01:51:00.177Z,95.90
2019-03-27T01:53:29.248Z,96.30
2019-03-27T01:55:58.344Z,96.30
2019-03-27T01:58:27.512Z,96.40
2019-03-27T02:00:56.754Z,96.60
2019-03-27T02:03:25.934Z,96.50
2019-03-27T02:05:55.112Z,96.50
2019-03-27T02:08:24.489Z,96.90
2019-03-27T02:10:53.578Z,96.90
2019-03-27T02:13:22.768Z,96.70
2019-03-27T02:16:05.869Z,96.70
2019-03-27T02:18:24.030Z,96.50
2019-03-27T02:20:53.458Z,96.30
2019-03-27T02:23:24.446Z,96.40
2019-03-27T02:25:54.935Z,96.40
2019-03-27T02:28:24.019Z,96.30
2019-03-27T02:30:53.311Z,95.90
2019-03-27T02:33:22.424Z,95.90
2019-03-27T02:35:51.795Z,95.70
2019-03-27T02:38:21.218Z,96.30
2019-03-27T02:40:50.538Z,96.80
2019-03-27T02:43:19.636Z,97.10
2019-03-27T02:45:48.945Z,97.30
2019-03-27T02:48:18.135Z,97.40
2019-03-27T02:50:48.516Z,97.10
2019-03-27T02:53:17.904Z,97.00
2019-03-27T02:55:47.083Z,97.10
2019-03-27T02:58:16.441Z,96.90
2019-03-27T03:00:45.820Z,96.70
2019-03-27T03:03:15.052Z,96.60
2019-03-27T03:05:44.337Z,96.90
2019-03-27T03:08:13.571Z,96.80
2019-03-27T03:10:45.543Z,97.00
2019-03-27T03:13:13.704Z,97.10
2019-03-27T03:15:42.727Z,97.30
2019-03-27T03:18:12.047Z,97.70
2019-03-27T03:20:41.111Z,98.00
2019-03-27T03:23:10.260Z,97.90
2019-03-27T03:25:39.373Z,97.90
2019-03-27T03:28:08.859Z,97.60
2019-03-27T03:30:37.972Z,97.60
2019-03-27T03:33:07.368Z,97.50
2019-03-27T03:35:36.831Z,97.40
2019-03-27T03:38:06.219Z,97.40
2019-03-27T03:40:35.689Z,97.10
2019-03-27T03:43:05.027Z,97.20
2019-03-27T03:45:34.160Z,96.80
2019-03-27T03:48:03.440Z,96.70
2019-03-27T03:50:42.820Z,96.60
2019-03-27T03:53:13.847Z,96.90
2019-03-27T03:55:43.457Z,97.10
2019-03-27T03:58:14.600Z,97.20
2019-03-27T04:00:44.547Z,97.10
2019-03-27T04:03:14.089Z,96.90
2019-03-27T04:05:43.340Z,96.90
2019-03-27T04:08:12.597Z,97.00
2019-03-27T04:10:41.931Z,96.90
2019-03-27T04:13:11.291Z,96.80
2019-03-27T04:15:40.495Z,96.80
2019-03-27T04:18:09.782Z,97.10
2019-03-27T04:20:38.919Z,97.40
2019-03-27T04:23:08.238Z,97.40
2019-03-27T04:26:06.990Z,97.30
2019-03-27T04:28:08.431Z,97.20
2019-03-27T04:30:37.582Z,97.20
2019-03-27T04:33:06.856Z,97.30
2019-03-27T04:35:36.014Z,97.00
2019-03-27T04:38:05.460Z,96.80
2019-03-27T04:40:35.466Z,97.20
2019-03-27T04:43:04.795Z,97.30
2019-03-27T04:45:34.061Z,97.20
2019-03-27T04:48:04.457Z,97.10
2019-03-27T04:50:35.513Z,97.10
2019-03-27T04:53:10.593Z,97.20
2019-03-27T04:55:41.300Z,97.50
2019-03-27T04:58:12.525Z,97.40
2019-03-27T05:00:42.375Z,97.20
2019-03-27T05:03:11.541Z,97.40
2019-03-27T05:05:40.806Z,97.70
2019-03-27T05:08:09.941Z,97.00
2019-03-27T05:10:40.204Z,97.40
2019-03-27T05:13:09.430Z,97.20
2019-03-27T05:15:38.821Z,97.20
2019-03-27T05:18:07.960Z,97.30
2019-03-27T05:20:37.242Z,97.20
2019-03-27T05:23:06.526Z,97.40
2019-03-27T05:25:37.753Z,97.50
2019-03-27T05:28:07.008Z,97.70
2019-03-27T05:30:36.133Z,97.70
2019-03-27T05:33:05.188Z,97.50
2019-03-27T05:35:34.145Z,97.60
2019-03-27T05:38:03.505Z,97.70
2019-03-27T05:40:32.684Z,97.70
2019-03-27T05:43:01.998Z,97.40
2019-03-27T05:45:31.281Z,97.20
2019-03-27T05:48:01.451Z,97.60
2019-03-27T05:50:30.812Z,97.90
2019-03-27T05:53:00.083Z,97.90
2019-03-27T05:55:29.356Z,98.00
2019-03-27T05:57:58.527Z,97.60
2019-03-27T06:00:27.821Z,97.40
2019-03-27T06:02:59.143Z,97.30
2019-03-27T06:05:28.268Z,97.90
2019-03-27T06:07:57.518Z,97.70
2019-03-27T06:10:26.719Z,97.40
2019-03-27T06:12:56.149Z,97.40
2019-03-27T06:15:25.637Z,97.40
2019-03-27T06:17:54.900Z,97.60
2019-03-27T06:20:25.323Z,97.70
2019-03-27T06:22:54.558Z,97.70
2019-03-27T06:25:23.650Z,97.90
2019-03-27T06:27:52.893Z,97.40
2019-03-27T06:30:22.167Z,97.70
2019-03-27T06:32:52.331Z,97.60
2019-03-27T06:35:21.657Z,97.40
2019-03-27T06:37:50.722Z,97.30
2019-03-27T06:40:19.990Z,97.00
2019-03-27T06:42:49.301Z,96.80
2019-03-27T06:45:20.644Z,96.80
2019-03-27T06:47:53.042Z,96.70
2019-03-27T06:50:22.748Z,96.70
2019-03-27T06:52:52.343Z,96.60
2019-03-27T06:55:22.037Z,96.70
2019-03-27T06:57:51.444Z,97.20
2019-03-27T07:00:27.946Z,96.10
2019-03-27T07:02:57.380Z,96.00
2019-03-27T07:05:26.513Z,96.70
2019-03-27T07:07:55.792Z,96.30
2019-03-27T07:10:25.388Z,96.30
2019-03-27T07:12:55.594Z,96.00
2019-03-27T07:15:24.931Z,95.70
2019-03-27T07:17:54.103Z,96.20
2019-03-27T07:20:23.244Z,96.20
2019-03-27T07:22:52.487Z,96.20
2019-03-27T07:25:23.163Z,94.50
2019-03-27T07:27:52.865Z,95.40
2019-03-27T07:30:22.985Z,94.80
2019-03-27T07:32:55.928Z,94.60
2019-03-27T07:35:26.276Z,94.00
2019-03-27T07:37:56.403Z,93.20
2019-03-27T07:40:27.360Z,92.80
2019-03-27T07:42:57.656Z,93.00
2019-03-27T07:45:27.550Z,92.20
2019-03-27T07:47:57.915Z,93.10
2019-03-27T07:50:28.082Z,92.70
2019-03-27T07:52:58.092Z,92.70
2019-03-27T07:55:27.886Z,92.60
2019-03-27T07:57:58.825Z,92.30
2019-03-27T08:00:29.188Z,91.80
2019-03-27T08:02:59.136Z,91.80
2019-03-27T08:05:28.967Z,91.10
2019-03-27T08:07:58.919Z,91.50
2019-03-27T08:10:28.825Z,91.90
2019-03-27T08:12:59.882Z,92.00
2019-03-27T08:15:31.024Z,90.20
2019-03-27T08:18:01.060Z,91.20
2019-03-27T08:20:30.465Z,91.70
2019-03-27T08:23:02.356Z,91.90
2019-03-27T08:25:31.795Z,91.20
2019-03-27T08:28:01.072Z,90.20
2019-03-27T08:30:30.511Z,89.50
2019-03-27T08:33:01.774Z,90.60
2019-03-27T08:35:30.976Z,90.30
2019-03-27T08:38:00.185Z,90.30
2019-03-27T08:40:30.550Z,89.60
2019-03-27T08:42:59.929Z,88.90
2019-03-27T08:45:29.682Z,88.10
2019-03-27T08:47:58.982Z,87.90
2019-03-27T08:50:28.341Z,86.50
2019-03-27T08:52:57.788Z,84.10
2019-03-27T08:55:27.099Z,85.00
2019-03-27T08:57:56.295Z,83.90
2019-03-27T09:00:48.562Z,86.60
2019-03-27T09:03:18.302Z,87.20
2019-03-27T09:05:47.425Z,85.60
2019-03-27T09:08:17.137Z,81.90
2019-03-27T09:10:46.422Z,85.10
2019-03-27T09:13:15.713Z,83.90
2019-03-27T09:15:45.119Z,82.30
2019-03-27T09:18:16.882Z,85.20
2019-03-27T09:20:45.569Z,80.90
2019-03-27T09:23:14.787Z,83.50
2019-03-27T09:25:44.043Z,85.60
2019-03-27T09:28:13.512Z,86.00
2019-03-27T09:30:42.855Z,86.40
2019-03-27T09:33:12.013Z,83.90
2019-03-27T09:35:41.361Z,82.50
2019-03-27T09:38:10.587Z,81.20
2019-03-27T09:40:40.032Z,80.40
2019-03-27T09:43:09.395Z,82.80
2019-03-27T09:45:38.537Z,79.30
2019-03-27T09:48:08.046Z,81.50
2019-03-27T09:50:37.410Z,74.00
2019-03-27T09:53:06.680Z,74.70
2019-03-27T09:55:35.989Z,76.10
2019-03-27T09:58:05.304Z,79.80
2019-03-27T10:01:04.327Z,75.30
2019-03-27T10:03:34.468Z,75.60
2019-03-27T10:06:04.893Z,78.20
2019-03-27T10:08:34.655Z,74.10
2019-03-27T10:11:06.496Z,76.70
2019-03-27T10:13:36.383Z,82.90
2019-03-27T10:16:06.072Z,72.80
2019-03-27T10:18:35.953Z,71.40
2019-03-27T10:21:05.710Z,72.90
2019-03-27T10:23:35.147Z,79.50
2019-03-27T10:26:05.043Z,79.00
2019-03-27T10:28:34.657Z,78.50
2019-03-27T10:31:04.357Z,69.10
2019-03-27T10:33:33.982Z,72.80
2019-03-27T10:36:03.175Z,75.50
2019-03-27T10:38:32.407Z,70.40
2019-03-27T10:41:01.702Z,73.20
2019-03-27T10:43:30.770Z,75.60
2019-03-27T10:46:00.010Z,67.40
2019-03-27T10:48:30.320Z,71.50
2019-03-27T10:51:00.081Z,65.90
2019-03-27T10:53:31.383Z,67.70
2019-03-27T10:56:00.745Z,64.90
2019-03-27T10:58:29.932Z,67.60
2019-03-27T11:01:01.340Z,68.80
2019-03-27T11:03:30.682Z,69.40
2019-03-27T11:06:00.971Z,67.80
2019-03-27T11:08:32.144Z,71.80
2019-03-27T11:11:01.192Z,71.40
2019-03-27T11:13:30.305Z,73.90
2019-03-27T11:15:59.633Z,70.60
2019-03-27T11:18:29.113Z,69.70
2019-03-27T11:20:59.580Z,64.90
2019-03-27T11:23:29.034Z,67.00
2019-03-27T11:25:58.385Z,74.80
2019-03-27T11:28:27.796Z,66.70
2019-03-27T11:30:57.318Z,65.40
2019-03-27T11:33:28.946Z,63.00
2019-03-27T11:35:58.781Z,62.10
2019-03-27T11:38:28.105Z,61.90
2019-03-27T11:40:57.768Z,61.90
2019-03-27T11:43:28.194Z,63.80
2019-03-27T11:45:59.829Z,64.20
2019-03-27T11:48:29.167Z,59.20
2019-03-27T11:50:58.652Z,61.50
2019-03-27T11:53:27.908Z,62.70
2019-03-27T11:55:57.214Z,61.60
2019-03-27T11:58:26.738Z,60.80
2019-03-27T12:00:56.025Z,58.20
2019-03-27T12:03:25.430Z,61.70
2019-03-27T12:05:54.786Z,58.10
2019-03-27T12:08:25.166Z,59.60
2019-03-27T12:10:54.270Z,60.50
2019-03-27T12:13:23.629Z,60.70
2019-03-27T12:15:52.906Z,59.50
2019-03-27T12:18:22.290Z,62.30
2019-03-27T12:20:59.087Z,59.30
2019-03-27T12:23:58.520Z,60.40
2019-03-27T12:26:31.021Z,61.90
2019-03-27T12:29:01.327Z,62.70
2019-03-27T12:31:30.619Z,56.60
2019-03-27T12:34:01.115Z,55.30
2019-03-27T12:36:30.195Z,60.90
2019-03-27T12:38:59.516Z,58.90
2019-03-27T12:41:29.047Z,59.10
2019-03-27T12:43:58.239Z,54.80
2019-03-27T12:46:27.422Z,57.90
2019-03-27T12:48:56.737Z,55.50
2019-03-27T12:51:25.991Z,53.20
2019-03-27T12:53:56.277Z,57.70
2019-03-27T12:56:25.401Z,51.10
2019-03-27T12:58:54.681Z,54.80
2019-03-27T13:01:24.181Z,56.40
2019-03-27T13:03:53.548Z,55.40
2019-03-27T13:06:22.752Z,51.90
2019-03-27T13:08:52.102Z,53.50
2019-03-27T13:11:21.271Z,54.00
2019-03-27T13:13:51.665Z,57.50
2019-03-27T13:16:22.079Z,58.10
2019-03-27T13:18:51.404Z,56.30
2019-03-27T13:21:26.509Z,53.30
2019-03-27T13:23:53.192Z,52.10
2019-03-27T13:26:22.675Z,52.20
2019-03-27T13:28:52.028Z,51.90
2019-03-27T13:31:21.236Z,54.70
2019-03-27T13:33:50.696Z,54.50
2019-03-27T13:36:20.997Z,52.50
2019-03-27T13:38:50.032Z,54.10
2019-03-27T13:41:20.428Z,55.30
2019-03-27T13:43:49.683Z,55.70
2019-03-27T13:46:19.064Z,54.10
2019-03-27T13:48:48.331Z,51.40
2019-03-27T13:51:17.863Z,51.10
2019-03-27T13:53:47.012Z,53.20
2019-03-27T13:56:16.292Z,52.80
2019-03-27T13:58:45.681Z,54.00
2019-03-27T14:01:15.136Z,52.20
2019-03-27T14:03:46.508Z,54.60
2019-03-27T14:06:15.907Z,55.20
2019-03-27T14:08:45.345Z,55.50
2019-03-27T14:11:14.708Z,54.40
2019-03-27T14:13:43.929Z,53.80
2019-03-27T14:16:13.098Z,55.80
2019-03-27T14:18:42.514Z,55.20
2019-03-27T14:21:11.789Z,55.40
2019-03-27T14:23:41.455Z,53.70
2019-03-27T14:26:10.871Z,54.50
2019-03-27T14:28:40.105Z,54.50
2019-03-27T14:31:09.504Z,54.90
2019-03-27T14:33:38.570Z,57.30
2019-03-27T14:36:07.932Z,57.30
2019-03-27T14:38:37.451Z,54.30
2019-03-27T14:41:06.818Z,53.40
2019-03-27T14:43:35.989Z,53.90
2019-03-27T14:46:05.287Z,54.40
2019-03-27T14:48:34.600Z,52.60
2019-03-27T14:51:04.227Z,53.10
2019-03-27T14:53:34.250Z,53.40
2019-03-27T14:56:03.697Z,53.70
2019-03-27T14:58:32.967Z,52.30
2019-03-27T15:01:02.608Z,53.60
2019-03-27T15:03:31.949Z,54.10
2019-03-27T15:06:01.205Z,53.60
2019-03-27T15:08:30.477Z,53.80
2019-03-27T15:10:59.802Z,50.90
2019-03-27T15:13:29.084Z,51.30
2019-03-27T15:15:58.165Z,51.80
2019-03-27T15:18:27.336Z,53.00
2019-03-27T15:20:56.997Z,53.20
2019-03-27T15:23:26.323Z,54.50
2019-03-27T15:25:55.635Z,51.90
2019-03-27T15:28:24.830Z,53.60
2019-03-27T15:30:54.081Z,52.80
2019-03-27T15:33:23.399Z,54.20
2019-03-27T15:35:52.815Z,52.20
2019-03-27T15:38:22.201Z,51.80
2019-03-27T15:40:52.427Z,52.20
2019-03-27T15:43:21.670Z,51.10
2019-03-27T15:45:53.000Z,52.20
2019-03-27T15:48:22.394Z,54.30
2019-03-27T15:50:58.262Z,52.70
2019-03-27T15:53:28.962Z,52.30
2019-03-27T15:55:59.343Z,58.90
2019-03-27T15:58:28.843Z,60.80
2019-03-27T16:00:58.327Z,61.70
2019-03-27T16:03:27.589Z,61.70
2019-03-27T16:05:57.010Z,62.50
2019-03-27T16:08:26.250Z,62.50
2019-03-27T16:10:55.548Z,64.60
2019-03-27T16:13:24.871Z,63.90
2019-03-27T16:15:54.180Z,63.40
2019-03-27T16:18:23.499Z,64.80
2019-03-27T16:20:52.872Z,65.20
2019-03-27T16:23:22.218Z,64.50
2019-03-27T16:25:52.395Z,64.90
2019-03-27T16:28:21.696Z,64.40
2019-03-27T16:30:51.389Z,65.10
2019-03-27T16:33:20.723Z,65.60
2019-03-27T16:35:49.841Z,65.60
2019-03-27T16:38:20.228Z,66.90
2019-03-27T16:40:50.432Z,66.80
2019-03-27T16:43:20.021Z,68.70
2019-03-27T16:45:51.285Z,69.00
2019-03-27T16:48:20.651Z,71.90
2019-03-27T16:50:49.939Z,74.20
2019-03-27T16:53:19.261Z,74.20
2019-03-27T16:55:48.665Z,75.20
2019-03-27T16:58:18.298Z,76.00
2019-03-27T17:00:48.320Z,77.20
2019-03-27T17:03:17.497Z,78.50
2019-03-27T17:05:53.884Z,80.90
2019-03-27T17:08:17.926Z,82.10
2019-03-27T17:10:46.984Z,85.00
2019-03-27T17:13:16.102Z,86.00
2019-03-27T17:15:45.253Z,88.90
2019-03-27T17:18:14.470Z,90.10
2019-03-27T17:20:43.684Z,90.60
2019-03-27T17:23:18.532Z,90.60
2019-03-27T17:25:43.846Z,91.00
2019-03-27T17:28:13.151Z,90.90
2019-03-27T17:30:42.549Z,91.10
2019-03-27T17:33:11.510Z,91.10
2019-03-27T17:35:40.692Z,91.50
2019-03-27T17:38:11.060Z,91.80
2019-03-27T17:40:40.602Z,91.60
2019-03-27T17:43:10.091Z,91.50
2019-03-27T17:45:39.411Z,90.90
2019-03-27T17:48:08.765Z,91.00
2019-03-27T17:50:37.999Z,90.90
2019-03-27T17:53:10.804Z,90.80
2019-03-27T17:55:40.459Z,90.60
2019-03-27T17:58:09.634Z,90.60
2019-03-27T18:00:53.243Z,90.70
2019-03-27T18:03:22.526Z,90.40
2019-03-27T18:05:52.046Z,90.80
2019-03-27T18:08:21.393Z,90.60
2019-03-27T18:10:50.600Z,91.40
2019-03-27T18:13:19.773Z,91.20
2019-03-27T18:15:49.039Z,91.10
2019-03-27T18:18:18.074Z,91.20
2019-03-27T18:20:47.148Z,91.60
2019-03-27T18:23:16.468Z,92.30
2019-03-27T18:25:45.563Z,92.50
2019-03-27T18:28:16.398Z,92.50
2019-03-27T18:30:45.574Z,92.70
2019-03-27T18:33:14.656Z,93.00
2019-03-27T18:35:43.756Z,93.10
2019-03-27T18:38:13.005Z,93.30
2019-03-27T18:40:42.373Z,93.60
2019-03-27T18:43:12.586Z,93.80
2019-03-27T18:45:41.841Z,93.80
2019-03-27T18:48:11.231Z,94.00
2019-03-27T18:50:40.445Z,93.90
2019-03-27T18:53:10.713Z,93.90
2019-03-27T18:55:40.942Z,94.00
2019-03-27T18:58:10.253Z,94.90
2019-03-27T19:00:39.573Z,94.20
2019-03-27T19:03:08.713Z,94.30
2019-03-27T19:05:38.203Z,94.60
2019-03-27T19:08:07.374Z,94.20
2019-03-27T19:10:36.705Z,94.40
2019-03-27T19:13:05.968Z,94.50
2019-03-27T19:15:35.283Z,94.40
2019-03-27T19:18:05.113Z,94.40
2019-03-27T19:20:34.454Z,94.70
2019-03-27T19:23:03.674Z,95.00
2019-03-27T19:25:33.341Z,95.10
2019-03-27T19:28:02.531Z,95.00
2019-03-27T19:30:31.887Z,95.00
2019-03-27T19:33:01.090Z,94.70
2019-03-27T19:35:30.357Z,95.70
2019-03-27T19:38:00.629Z,95.00
2019-03-27T19:40:30.007Z,94.90
2019-03-27T19:42:59.406Z,95.30
2019-03-27T19:45:28.924Z,95.40
2019-03-27T19:47:58.546Z,95.10
2019-03-27T19:50:27.797Z,95.40
2019-03-27T19:52:57.133Z,95.20
2019-03-27T19:55:26.288Z,95.10
2019-03-27T19:57:55.636Z,95.30
2019-03-27T20:00:25.218Z,95.50
2019-03-27T20:02:54.320Z,95.30
2019-03-27T20:05:23.405Z,95.30
2019-03-27T20:07:52.570Z,95.40
2019-03-27T20:10:21.631Z,95.50
2019-03-27T20:12:50.762Z,95.50
2019-03-27T20:15:20.062Z,95.60
2019-03-27T20:17:49.126Z,95.70
2019-03-27T20:20:18.523Z,96.00
2019-03-27T20:22:47.849Z,95.60
2019-03-27T20:25:18.360Z,95.40
2019-03-27T20:27:47.463Z,95.40
2019-03-27T20:30:17.216Z,95.80
2019-03-27T20:32:46.417Z,95.30
2019-03-27T20:35:15.681Z,95.60
2019-03-27T20:37:45.089Z,95.30
2019-03-27T20:40:14.381Z,95.30
2019-03-27T20:42:43.790Z,95.50
2019-03-27T20:45:14.067Z,95.70
2019-03-27T20:47:43.325Z,95.90
2019-03-27T20:50:12.679Z,95.80
2019-03-27T20:52:42.125Z,95.50
2019-03-27T20:55:11.631Z,95.60
2019-03-27T20:57:41.195Z,95.70
2019-03-27T21:00:12.432Z,95.90
2019-03-27T21:02:41.750Z,95.90
2019-03-27T21:05:11.104Z,95.80
2019-03-27T21:07:40.340Z,95.80
2019-03-27T21:10:10.127Z,95.90
2019-03-27T21:12:39.137Z,96.10
2019-03-27T21:15:09.826Z,95.90
2019-03-27T21:17:38.896Z,96.00
2019-03-27T21:20:08.706Z,96.20
2019-03-27T21:22:38.990Z,96.20
2019-03-27T21:25:09.632Z,96.10
2019-03-27T21:27:39.075Z,96.20
2019-03-27T21:30:09.142Z,96.30
2019-03-27T21:32:38.343Z,96.20
2019-03-27T21:35:07.926Z,96.70
2019-03-27T21:37:37.023Z,96.30
2019-03-27T21:40:07.899Z,96.70
2019-03-27T21:42:37.068Z,96.60
2019-03-27T21:45:26.187Z,96.40
2019-03-27T21:47:55.540Z,95.90
2019-03-27T21:50:24.972Z,96.40
2019-03-27T21:53:00.374Z,96.40
2019-03-27T21:55:25.329Z,96.20
2019-03-27T21:57:54.366Z,96.20
2019-03-27T22:00:37.260Z,96.30
2019-03-27T22:03:06.826Z,96.80
2019-03-27T22:05:36.191Z,96.80
2019-03-27T22:08:05.439Z,96.80
2019-03-27T22:10:34.692Z,97.10
2019-03-27T22:13:03.742Z,97.20
2019-03-27T22:15:33.067Z,97.20
2019-03-27T22:18:02.365Z,97.50
2019-03-27T22:20:31.656Z,97.70
2019-03-27T22:23:00.951Z,97.70
2019-03-27T22:25:35.728Z,97.80
2019-03-27T22:28:01.275Z,97.70
2019-03-27T22:30:30.492Z,97.80
2019-03-27T22:32:59.754Z,97.90
2019-03-27T22:35:28.891Z,98.00
2019-03-27T22:37:58.057Z,98.10
2019-03-27T22:40:27.165Z,98.00
2019-03-27T22:42:57.087Z,97.90
2019-03-27T22:45:26.290Z,98.10
2019-03-27T22:47:55.459Z,98.00
2019-03-27T22:50:24.652Z,98.10
2019-03-27T22:52:53.839Z,98.30
2019-03-27T22:55:22.869Z,98.30
2019-03-27T22:57:52.235Z,98.40
2019-03-27T23:00:24.380Z,98.30
2019-03-27T23:02:55.450Z,98.20
2019-03-27T23:05:24.858Z,98.10
2019-03-27T23:07:55.255Z,98.10
2019-03-27T23:10:24.527Z,98.20
2019-03-27T23:12:53.673Z,97.90
2019-03-27T23:15:23.023Z,97.90
2019-03-27T23:17:52.184Z,98.40
2019-03-27T23:20:21.323Z,98.60
2019-03-27T23:22:50.336Z,98.60
2019-03-27T23:25:19.543Z,98.50
2019-03-27T23:27:48.611Z,98.60
2019-03-27T23:30:18.059Z,98.70
2019-03-27T23:32:47.362Z,98.40
2019-03-27T23:35:16.550Z,98.50
2019-03-27T23:37:45.666Z,98.20
2019-03-27T23:40:14.929Z,98.40
2019-03-27T23:42:44.243Z,98.30
2019-03-27T23:45:14.708Z,98.50
2019-03-27T23:47:44.821Z,98.60
2019-03-27T23:50:14.002Z,98.40
2019-03-27T23:52:43.243Z,98.10
2019-03-27T23:55:12.554Z,97.90
2019-03-27T23:57:41.940Z,98.00
